sensor_id;sensor_type;location;lat;lon;timestamp;pressure;altitude;pressure_sealevel;temperature;humidity
83716;BME280;73698;51.138;6.950;2023-11-19T00:01:20;100563.22;;;9.26;92.53
83716;BME280;73698;51.138;6.950;2023-11-19T00:04:04;100563.16;;;9.27;92.78
83716;BME280;73698;51.138;6.950;2023-11-19T00:06:31;100552.41;;;9.27;92.33
83716;BME280;73698;51.138;6.950;2023-11-19T00:08:56;100554.13;;;9.28;92.29
83716;BME280;73698;51.138;6.950;2023-11-19T00:11:23;100549.31;;;9.34;92.66
83716;BME280;73698;51.138;6.950;2023-11-19T00:13:49;100549.22;;;9.35;93.20
83716;BME280;73698;51.138;6.950;2023-11-19T00:19:50;100517.56;;;9.40;92.60
83716;BME280;73698;51.138;6.950;2023-11-19T00:22:17;100524.56;;;9.43;92.69
83716;BME280;73698;51.138;6.950;2023-11-19T00:28:14;100548.63;;;9.44;92.66
83716;BME280;73698;51.138;6.950;2023-11-19T00:30:40;100556.59;;;9.46;92.73
83716;BME280;73698;51.138;6.950;2023-11-19T00:33:08;100544.03;;;9.46;92.31
83716;BME280;73698;51.138;6.950;2023-11-19T00:35:34;100537.56;;;9.49;92.69
83716;BME280;73698;51.138;6.950;2023-11-19T00:37:59;100550.91;;;9.50;92.57
83716;BME280;73698;51.138;6.950;2023-11-19T00:40:25;100549.09;;;9.51;92.54
83716;BME280;73698;51.138;6.950;2023-11-19T00:42:51;100544.56;;;9.51;92.66
83716;BME280;73698;51.138;6.950;2023-11-19T00:45:16;100539.00;;;9.54;93.03
83716;BME280;73698;51.138;6.950;2023-11-19T00:47:42;100549.63;;;9.56;93.11
83716;BME280;73698;51.138;6.950;2023-11-19T00:50:08;100537.94;;;9.57;92.77
83716;BME280;73698;51.138;6.950;2023-11-19T00:52:38;100543.41;;;9.56;92.24
83716;BME280;73698;51.138;6.950;2023-11-19T00:55:04;100541.69;;;9.54;92.87
83716;BME280;73698;51.138;6.950;2023-11-19T00:57:33;100536.31;;;9.54;92.99
83716;BME280;73698;51.138;6.950;2023-11-19T00:59:59;100538.88;;;9.56;92.83
83716;BME280;73698;51.138;6.950;2023-11-19T01:02:25;100533.44;;;9.58;92.38
83716;BME280;73698;51.138;6.950;2023-11-19T01:04:50;100528.06;;;9.58;92.52
83716;BME280;73698;51.138;6.950;2023-11-19T01:07:16;100532.47;;;9.59;92.79
83716;BME280;73698;51.138;6.950;2023-11-19T01:09:43;100527.75;;;9.62;92.18
83716;BME280;73698;51.138;6.950;2023-11-19T01:12:09;100514.34;;;9.62;93.06
83716;BME280;73698;51.138;6.950;2023-11-19T01:14:35;100525.94;;;9.63;92.78
83716;BME280;73698;51.138;6.950;2023-11-19T01:17:01;100525.81;;;9.64;92.70
83716;BME280;73698;51.138;6.950;2023-11-19T01:19:26;100524.75;;;9.67;92.74
83716;BME280;73698;51.138;6.950;2023-11-19T01:21:53;100522.84;;;9.69;92.71
83716;BME280;73698;51.138;6.950;2023-11-19T01:24:19;100534.25;;;9.72;92.76
83716;BME280;73698;51.138;6.950;2023-11-19T01:26:45;100533.06;;;9.76;93.29
83716;BME280;73698;51.138;6.950;2023-11-19T01:29:14;100524.50;;;9.84;93.23
83716;BME280;73698;51.138;6.950;2023-11-19T01:31:45;100521.38;;;9.90;93.01
83716;BME280;73698;51.138;6.950;2023-11-19T01:34:10;100522.16;;;9.92;93.20
83716;BME280;73698;51.138;6.950;2023-11-19T01:36:37;100523.53;;;9.98;93.03
83716;BME280;73698;51.138;6.950;2023-11-19T01:39:02;100533.09;;;10.02;93.34
83716;BME280;73698;51.138;6.950;2023-11-19T01:41:33;100531.84;;;10.08;93.22
83716;BME280;73698;51.138;6.950;2023-11-19T01:43:59;100533.34;;;10.12;93.00
83716;BME280;73698;51.138;6.950;2023-11-19T01:46:24;100520.78;;;10.12;92.68
83716;BME280;73698;51.138;6.950;2023-11-19T01:48:51;100512.59;;;10.14;93.04
83716;BME280;73698;51.138;6.950;2023-11-19T01:51:16;100527.34;;;10.21;93.44
83716;BME280;73698;51.138;6.950;2023-11-19T01:53:43;100517.06;;;10.27;93.21
83716;BME280;73698;51.138;6.950;2023-11-19T01:56:10;100514.50;;;10.39;92.87
83716;BME280;73698;51.138;6.950;2023-11-19T01:58:37;100514.13;;;10.56;93.33
83716;BME280;73698;51.138;6.950;2023-11-19T02:01:05;100518.56;;;10.70;93.58
83716;BME280;73698;51.138;6.950;2023-11-19T02:03:32;100523.03;;;10.82;93.32
83716;BME280;73698;51.138;6.950;2023-11-19T02:05:59;100519.16;;;10.86;93.18
83716;BME280;73698;51.138;6.950;2023-11-19T02:08:25;100524.19;;;10.91;93.34
83716;BME280;73698;51.138;6.950;2023-11-19T02:10:51;100528.72;;;10.90;93.14
83716;BME280;73698;51.138;6.950;2023-11-19T02:13:17;100520.44;;;10.93;93.48
83716;BME280;73698;51.138;6.950;2023-11-19T02:15:43;100505.16;;;10.94;93.58
83716;BME280;73698;51.138;6.950;2023-11-19T02:18:21;100506.56;;;10.99;92.87
83716;BME280;73698;51.138;6.950;2023-11-19T02:20:48;100493.63;;;11.05;93.22
83716;BME280;73698;51.138;6.950;2023-11-19T02:23:14;100498.16;;;11.04;93.21
83716;BME280;73698;51.138;6.950;2023-11-19T02:25:40;100493.41;;;11.08;93.85
83716;BME280;73698;51.138;6.950;2023-11-19T02:28:07;100482.50;;;11.09;93.10
83716;BME280;73698;51.138;6.950;2023-11-19T02:30:32;100469.56;;;11.14;92.78
83716;BME280;73698;51.138;6.950;2023-11-19T02:32:58;100465.16;;;11.13;92.76
83716;BME280;73698;51.138;6.950;2023-11-19T02:35:27;100462.47;;;11.13;92.72
83716;BME280;73698;51.138;6.950;2023-11-19T02:37:52;100456.25;;;11.13;92.64
83716;BME280;73698;51.138;6.950;2023-11-19T02:40:19;100465.06;;;11.15;92.78
83716;BME280;73698;51.138;6.950;2023-11-19T02:42:44;100463.97;;;11.17;93.17
83716;BME280;73698;51.138;6.950;2023-11-19T02:45:10;100455.88;;;11.17;92.37
83716;BME280;73698;51.138;6.950;2023-11-19T02:47:43;100461.91;;;11.21;93.24
83716;BME280;73698;51.138;6.950;2023-11-19T02:50:11;100467.28;;;11.21;93.06
83716;BME280;73698;51.138;6.950;2023-11-19T02:52:46;100466.00;;;11.27;92.46
83716;BME280;73698;51.138;6.950;2023-11-19T02:55:12;100465.50;;;11.33;92.49
83716;BME280;73698;51.138;6.950;2023-11-19T02:57:41;100474.97;;;11.38;93.18
83716;BME280;73698;51.138;6.950;2023-11-19T03:00:16;100470.22;;;11.42;92.67
83716;BME280;73698;51.138;6.950;2023-11-19T03:02:43;100457.63;;;11.42;92.10
83716;BME280;73698;51.138;6.950;2023-11-19T03:05:13;100463.72;;;11.44;92.78
83716;BME280;73698;51.138;6.950;2023-11-19T03:07:43;100466.41;;;11.44;92.44
83716;BME280;73698;51.138;6.950;2023-11-19T03:10:10;100469.25;;;11.43;92.19
83716;BME280;73698;51.138;6.950;2023-11-19T03:12:39;100469.97;;;11.45;92.26
83716;BME280;73698;51.138;6.950;2023-11-19T03:15:06;100457.63;;;11.42;92.61
83716;BME280;73698;51.138;6.950;2023-11-19T03:17:32;100454.91;;;11.42;92.20
83716;BME280;73698;51.138;6.950;2023-11-19T03:19:57;100448.34;;;11.46;92.07
83716;BME280;73698;51.138;6.950;2023-11-19T03:22:23;100447.84;;;11.53;92.66
83716;BME280;73698;51.138;6.950;2023-11-19T03:24:51;100444.94;;;11.56;91.63
83716;BME280;73698;51.138;6.950;2023-11-19T03:27:16;100442.84;;;11.59;91.84
83716;BME280;73698;51.138;6.950;2023-11-19T03:29:42;100432.44;;;11.55;91.36
83716;BME280;73698;51.138;6.950;2023-11-19T03:32:07;100431.47;;;11.56;91.56
83716;BME280;73698;51.138;6.950;2023-11-19T03:34:33;100439.44;;;11.57;90.95
83716;BME280;73698;51.138;6.950;2023-11-19T03:36:58;100432.94;;;11.60;91.08
83716;BME280;73698;51.138;6.950;2023-11-19T03:39:24;100434.91;;;11.58;90.45
83716;BME280;73698;51.138;6.950;2023-11-19T03:41:50;100438.56;;;11.57;91.09
83716;BME280;73698;51.138;6.950;2023-11-19T03:44:16;100442.00;;;11.59;90.30
83716;BME280;73698;51.138;6.950;2023-11-19T03:46:41;100449.31;;;11.57;89.85
83716;BME280;73698;51.138;6.950;2023-11-19T03:49:07;100449.00;;;11.61;90.21
83716;BME280;73698;51.138;6.950;2023-11-19T03:51:33;100443.47;;;11.63;90.04
83716;BME280;73698;51.138;6.950;2023-11-19T03:54:00;100444.25;;;11.65;90.48
83716;BME280;73698;51.138;6.950;2023-11-19T03:56:26;100453.81;;;11.69;89.90
83716;BME280;73698;51.138;6.950;2023-11-19T03:58:52;100453.91;;;11.67;89.51
83716;BME280;73698;51.138;6.950;2023-11-19T04:01:18;100457.13;;;11.72;89.03
83716;BME280;73698;51.138;6.950;2023-11-19T04:03:43;100459.91;;;11.71;88.58
83716;BME280;73698;51.138;6.950;2023-11-19T04:06:09;100467.28;;;11.69;88.92
83716;BME280;73698;51.138;6.950;2023-11-19T04:08:35;100465.44;;;11.69;88.76
83716;BME280;73698;51.138;6.950;2023-11-19T04:11:03;100463.72;;;11.68;88.85
83716;BME280;73698;51.138;6.950;2023-11-19T04:13:28;100478.03;;;11.69;88.58
83716;BME280;73698;51.138;6.950;2023-11-19T04:15:54;100464.44;;;11.70;87.79
83716;BME280;73698;51.138;6.950;2023-11-19T04:18:19;100464.44;;;11.70;88.07
83716;BME280;73698;51.138;6.950;2023-11-19T04:20:44;100458.44;;;11.67;88.41
83716;BME280;73698;51.138;6.950;2023-11-19T04:23:10;100445.69;;;11.58;87.97
83716;BME280;73698;51.138;6.950;2023-11-19T04:25:36;100453.72;;;11.46;88.48
83716;BME280;73698;51.138;6.950;2023-11-19T04:28:02;100461.38;;;11.40;88.90
83716;BME280;73698;51.138;6.950;2023-11-19T04:30:28;100466.91;;;11.38;89.17
83716;BME280;73698;51.138;6.950;2023-11-19T04:32:53;100468.09;;;11.34;89.21
83716;BME280;73698;51.138;6.950;2023-11-19T04:35:19;100470.03;;;11.32;89.72
83716;BME280;73698;51.138;6.950;2023-11-19T04:37:44;100475.28;;;11.34;89.54
83716;BME280;73698;51.138;6.950;2023-11-19T04:40:10;100483.50;;;11.32;89.50
83716;BME280;73698;51.138;6.950;2023-11-19T04:42:37;100472.72;;;11.32;90.05
83716;BME280;73698;51.138;6.950;2023-11-19T04:45:06;100488.75;;;11.34;90.53
83716;BME280;73698;51.138;6.950;2023-11-19T04:47:32;100487.91;;;11.33;89.71
83716;BME280;73698;51.138;6.950;2023-11-19T04:49:58;100493.41;;;11.32;90.31
83716;BME280;73698;51.138;6.950;2023-11-19T04:52:24;100474.44;;;11.33;90.43
83716;BME280;73698;51.138;6.950;2023-11-19T04:54:49;100475.41;;;11.32;89.45
83716;BME280;73698;51.138;6.950;2023-11-19T04:57:15;100475.94;;;11.37;89.79
83716;BME280;73698;51.138;6.950;2023-11-19T04:59:40;100465.69;;;11.42;89.10
83716;BME280;73698;51.138;6.950;2023-11-19T05:02:08;100469.97;;;11.45;89.03
83716;BME280;73698;51.138;6.950;2023-11-19T05:04:34;100470.09;;;11.43;88.73
83716;BME280;73698;51.138;6.950;2023-11-19T05:07:00;100476.25;;;11.45;89.59
83716;BME280;73698;51.138;6.950;2023-11-19T05:09:25;100465.13;;;11.50;88.76
83716;BME280;73698;51.138;6.950;2023-11-19T05:11:51;100483.97;;;11.50;88.26
83716;BME280;73698;51.138;6.950;2023-11-19T05:14:16;100474.28;;;11.47;88.31
83716;BME280;73698;51.138;6.950;2023-11-19T05:16:43;100482.22;;;11.49;87.80
83716;BME280;73698;51.138;6.950;2023-11-19T05:19:09;100486.03;;;11.46;87.61
83716;BME280;73698;51.138;6.950;2023-11-19T05:21:34;100487.09;;;11.44;88.85
83716;BME280;73698;51.138;6.950;2023-11-19T05:24:03;100505.84;;;11.45;88.31
83716;BME280;73698;51.138;6.950;2023-11-19T05:26:32;100495.94;;;11.46;88.48
83716;BME280;73698;51.138;6.950;2023-11-19T05:28:57;100504.13;;;11.44;88.26
83716;BME280;73698;51.138;6.950;2023-11-19T05:31:23;100493.34;;;11.44;87.82
83716;BME280;73698;51.138;6.950;2023-11-19T05:33:48;100495.53;;;11.39;87.75
83716;BME280;73698;51.138;6.950;2023-11-19T05:36:14;100508.47;;;11.34;87.21
83716;BME280;73698;51.138;6.950;2023-11-19T05:38:40;100503.09;;;11.34;87.24
83716;BME280;73698;51.138;6.950;2023-11-19T05:41:05;100515.94;;;11.31;88.14
83716;BME280;73698;51.138;6.950;2023-11-19T05:43:31;100508.28;;;11.24;87.68
83716;BME280;73698;51.138;6.950;2023-11-19T05:45:57;100508.41;;;11.23;87.89
83716;BME280;73698;51.138;6.950;2023-11-19T05:48:23;100509.38;;;11.22;87.62
83716;BME280;73698;51.138;6.950;2023-11-19T05:50:49;100509.38;;;11.22;86.89
83716;BME280;73698;51.138;6.950;2023-11-19T05:53:15;100506.38;;;11.27;86.56
83716;BME280;73698;51.138;6.950;2023-11-19T05:55:41;100513.09;;;11.32;86.67
83716;BME280;73698;51.138;6.950;2023-11-19T05:58:23;100513.97;;;11.33;86.04
83716;BME280;73698;51.138;6.950;2023-11-19T06:00:49;100507.72;;;11.32;86.14
83716;BME280;73698;51.138;6.950;2023-11-19T06:03:15;100507.84;;;11.31;86.85
83716;BME280;73698;51.138;6.950;2023-11-19T06:05:41;100511.41;;;11.31;86.44
83716;BME280;73698;51.138;6.950;2023-11-19T06:08:06;100513.34;;;11.29;86.27
83716;BME280;73698;51.138;6.950;2023-11-19T06:10:32;100513.09;;;11.32;85.49
83716;BME280;73698;51.138;6.950;2023-11-19T06:12:59;100519.69;;;11.28;85.69
83716;BME280;73698;51.138;6.950;2023-11-19T06:15:27;100533.59;;;11.22;85.73
83716;BME280;73698;51.138;6.950;2023-11-19T06:17:53;100527.56;;;11.18;85.86
83716;BME280;73698;51.138;6.950;2023-11-19T06:20:20;100536.13;;;11.12;85.46
83716;BME280;73698;51.138;6.950;2023-11-19T06:22:45;100543.34;;;11.12;85.07
83716;BME280;73698;51.138;6.950;2023-11-19T06:25:12;100545.25;;;11.10;84.68
83716;BME280;73698;51.138;6.950;2023-11-19T06:27:42;100543.88;;;11.04;84.92
83716;BME280;73698;51.138;6.950;2023-11-19T06:30:08;100543.97;;;11.03;84.78
83716;BME280;73698;51.138;6.950;2023-11-19T06:32:34;100533.13;;;11.04;85.19
83716;BME280;73698;51.138;6.950;2023-11-19T06:34:59;100534.09;;;11.03;84.79
83716;BME280;73698;51.138;6.950;2023-11-19T06:37:25;100531.50;;;11.02;83.98
83716;BME280;73698;51.138;6.950;2023-11-19T06:39:50;100529.28;;;10.95;84.96
83716;BME280;73698;51.138;6.950;2023-11-19T06:42:15;100519.28;;;10.85;84.71
83716;BME280;73698;51.138;6.950;2023-11-19T06:44:51;100516.50;;;10.73;85.00
83716;BME280;73698;51.138;6.950;2023-11-19T06:47:27;100528.88;;;10.63;85.44
83716;BME280;73698;51.138;6.950;2023-11-19T06:49:53;100525.00;;;10.55;85.77
83716;BME280;73698;51.138;6.950;2023-11-19T06:52:19;100535.56;;;10.58;85.71
83716;BME280;73698;51.138;6.950;2023-11-19T06:54:45;100537.28;;;10.59;85.02
83716;BME280;73698;51.138;6.950;2023-11-19T06:57:11;100524.91;;;10.56;85.00
83716;BME280;73698;51.138;6.950;2023-11-19T06:59:37;100535.13;;;10.51;85.50
83716;BME280;73698;51.138;6.950;2023-11-19T07:02:02;100539.00;;;10.47;85.42
83716;BME280;73698;51.138;6.950;2023-11-19T07:04:28;100539.97;;;10.46;85.78
83716;BME280;73698;51.138;6.950;2023-11-19T07:06:53;100523.59;;;10.49;85.46
83716;BME280;73698;51.138;6.950;2023-11-19T07:09:19;100523.50;;;10.50;84.68
83716;BME280;73698;51.138;6.950;2023-11-19T07:11:44;100522.22;;;10.43;84.35
83716;BME280;73698;51.138;6.950;2023-11-19T07:14:11;100519.00;;;10.38;84.57
83716;BME280;73698;51.138;6.950;2023-11-19T07:16:37;100522.88;;;10.34;85.16
83716;BME280;73698;51.138;6.950;2023-11-19T07:19:04;100519.31;;;10.34;84.65
83716;BME280;73698;51.138;6.950;2023-11-19T07:21:31;100520.72;;;10.26;85.21
83716;BME280;73698;51.138;6.950;2023-11-19T07:23:56;100532.34;;;10.27;85.26
83716;BME280;73698;51.138;6.950;2023-11-19T07:26:22;100537.88;;;10.24;85.69
83716;BME280;73698;51.138;6.950;2023-11-19T07:28:49;100535.09;;;10.25;85.93
83716;BME280;73698;51.138;6.950;2023-11-19T07:31:14;100544.59;;;10.31;84.91
83716;BME280;73698;51.138;6.950;2023-11-19T07:33:40;100547.16;;;10.33;85.43
83716;BME280;73698;51.138;6.950;2023-11-19T07:36:10;100542.53;;;10.35;84.79
83716;BME280;73698;51.138;6.950;2023-11-19T07:38:36;100545.97;;;10.37;84.47
83716;BME280;73698;51.138;6.950;2023-11-19T07:41:02;100545.13;;;10.36;84.90
83716;BME280;73698;51.138;6.950;2023-11-19T07:43:27;100560.25;;;10.37;83.89
83716;BME280;73698;51.138;6.950;2023-11-19T07:45:52;100559.31;;;10.38;83.64
83716;BME280;73698;51.138;6.950;2023-11-19T07:48:18;100567.28;;;10.40;84.68
83716;BME280;73698;51.138;6.950;2023-11-19T07:50:51;100558.03;;;10.44;83.22
83716;BME280;73698;51.138;6.950;2023-11-19T07:53:17;100560.72;;;10.44;83.55
83716;BME280;73698;51.138;6.950;2023-11-19T07:55:42;100571.78;;;10.39;83.95
83716;BME280;73698;51.138;6.950;2023-11-19T07:58:10;100580.91;;;10.37;83.96
83716;BME280;73698;51.138;6.950;2023-11-19T08:00:35;100585.22;;;10.39;83.77
83716;BME280;73698;51.138;6.950;2023-11-19T08:03:01;100584.69;;;10.47;84.31
83716;BME280;73698;51.138;6.950;2023-11-19T08:05:26;100591.59;;;10.51;83.38
83716;BME280;73698;51.138;6.950;2023-11-19T08:07:52;100593.28;;;10.52;83.97
83716;BME280;73698;51.138;6.950;2023-11-19T08:10:19;100595.66;;;10.57;83.61
83716;BME280;73698;51.138;6.950;2023-11-19T08:12:44;100609.88;;;10.59;83.94
83716;BME280;73698;51.138;6.950;2023-11-19T08:15:10;100602.66;;;10.59;83.88
83716;BME280;73698;51.138;6.950;2023-11-19T08:17:36;100609.22;;;10.68;83.44
83716;BME280;73698;51.138;6.950;2023-11-19T08:20:05;100609.66;;;10.74;83.65
83716;BME280;73698;51.138;6.950;2023-11-19T08:22:35;100625.13;;;10.84;83.28
83716;BME280;73698;51.138;6.950;2023-11-19T08:25:00;100622.56;;;10.95;83.68
83716;BME280;73698;51.138;6.950;2023-11-19T08:27:26;100632.34;;;11.09;83.96
83716;BME280;73698;51.138;6.950;2023-11-19T08:29:54;100626.22;;;11.19;82.78
83716;BME280;73698;51.138;6.950;2023-11-19T08:32:24;100630.06;;;11.28;82.82
83716;BME280;73698;51.138;6.950;2023-11-19T08:34:49;100627.88;;;11.33;82.34
83716;BME280;73698;51.138;6.950;2023-11-19T08:37:15;100629.72;;;11.33;81.95
83716;BME280;73698;51.138;6.950;2023-11-19T08:39:43;100627.03;;;11.45;81.11
83716;BME280;73698;51.138;6.950;2023-11-19T08:42:08;100613.72;;;11.55;80.57
83716;BME280;73698;51.138;6.950;2023-11-19T08:44:34;100615.22;;;11.59;80.99
83716;BME280;73698;51.138;6.950;2023-11-19T08:46:59;100609.84;;;11.59;80.75
83716;BME280;73698;51.138;6.950;2023-11-19T08:49:24;100620.94;;;11.55;80.46
83716;BME280;73698;51.138;6.950;2023-11-19T08:51:51;100616.41;;;11.55;80.39
83716;BME280;73698;51.138;6.950;2023-11-19T08:54:16;100617.41;;;11.54;80.32
83716;BME280;73698;51.138;6.950;2023-11-19T08:56:41;100627.84;;;11.59;79.97
83716;BME280;73698;51.138;6.950;2023-11-19T08:59:07;100627.13;;;11.68;80.67
83716;BME280;73698;51.138;6.950;2023-11-19T09:01:34;100622.94;;;11.77;79.58
83716;BME280;73698;51.138;6.950;2023-11-19T09:03:59;100626.81;;;11.85;79.89
83716;BME280;73698;51.138;6.950;2023-11-19T09:06:24;100635.28;;;11.92;79.62
83716;BME280;73698;51.138;6.950;2023-11-19T09:08:50;100636.44;;;12.01;78.14
83716;BME280;73698;51.138;6.950;2023-11-19T09:11:16;100641.81;;;12.01;78.58
83716;BME280;73698;51.138;6.950;2023-11-19T09:13:42;100633.97;;;11.97;79.48
83716;BME280;73698;51.138;6.950;2023-11-19T09:16:07;100625.47;;;11.91;79.13
83716;BME280;73698;51.138;6.950;2023-11-19T09:18:34;100630.47;;;11.84;79.09
83716;BME280;73698;51.138;6.950;2023-11-19T09:21:00;100622.28;;;11.86;78.12
83716;BME280;73698;51.138;6.950;2023-11-19T09:23:25;100630.47;;;11.84;79.47
83716;BME280;73698;51.138;6.950;2023-11-19T09:25:53;100627.78;;;11.84;78.15
83716;BME280;73698;51.138;6.950;2023-11-19T09:28:18;100623.56;;;11.80;78.32
83716;BME280;73698;51.138;6.950;2023-11-19T09:30:44;100629.81;;;11.81;78.38
83716;BME280;73698;51.138;6.950;2023-11-19T09:33:09;100620.34;;;11.88;77.26
83716;BME280;73698;51.138;6.950;2023-11-19T09:35:35;100626.84;;;11.96;77.66
83716;BME280;73698;51.138;6.950;2023-11-19T09:38:00;100620.63;;;11.96;77.58
83716;BME280;73698;51.138;6.950;2023-11-19T09:40:26;100619.13;;;11.92;77.90
83716;BME280;73698;51.138;6.950;2023-11-19T09:42:51;100618.66;;;11.98;77.23
83716;BME280;73698;51.138;6.950;2023-11-19T09:45:20;100632.09;;;12.11;77.38
83716;BME280;73698;51.138;6.950;2023-11-19T09:47:46;100634.94;;;12.20;76.02
83716;BME280;73698;51.138;6.950;2023-11-19T09:50:16;100637.50;;;12.22;77.29
83716;BME280;73698;51.138;6.950;2023-11-19T09:52:43;100639.09;;;12.25;75.94
83716;BME280;73698;51.138;6.950;2023-11-19T09:55:09;100628.56;;;12.21;76.01
83716;BME280;73698;51.138;6.950;2023-11-19T09:57:35;100630.38;;;12.21;76.76
83716;BME280;73698;51.138;6.950;2023-11-19T10:00:03;100629.66;;;12.19;76.46
83716;BME280;73698;51.138;6.950;2023-11-19T10:02:34;100629.94;;;12.27;76.92
83716;BME280;73698;51.138;6.950;2023-11-19T10:05:06;100621.72;;;12.29;76.95
83716;BME280;73698;51.138;6.950;2023-11-19T10:07:33;100611.78;;;12.29;75.62
83716;BME280;73698;51.138;6.950;2023-11-19T10:10:04;100616.22;;;12.30;75.63
83716;BME280;73698;51.138;6.950;2023-11-19T10:12:30;100610.47;;;12.35;75.35
83716;BME280;73698;51.138;6.950;2023-11-19T10:14:57;100615.03;;;12.45;75.77
83716;BME280;73698;51.138;6.950;2023-11-19T10:17:32;100613.31;;;12.44;74.91
83716;BME280;73698;51.138;6.950;2023-11-19T10:19:58;100604.25;;;12.45;75.75
83716;BME280;73698;51.138;6.950;2023-11-19T10:22:24;100620.44;;;12.57;75.77
83716;BME280;73698;51.138;6.950;2023-11-19T10:24:50;100614.97;;;12.69;75.64
83716;BME280;73698;51.138;6.950;2023-11-19T10:27:15;100615.84;;;12.81;73.72
83716;BME280;73698;51.138;6.950;2023-11-19T10:29:47;100606.28;;;12.77;73.78
83716;BME280;73698;51.138;6.950;2023-11-19T10:32:13;100605.50;;;12.64;73.79
83716;BME280;73698;51.138;6.950;2023-11-19T10:34:40;100610.53;;;12.57;74.69
83716;BME280;73698;51.138;6.950;2023-11-19T10:37:07;100601.19;;;12.50;74.89
83716;BME280;73698;51.138;6.950;2023-11-19T10:39:52;100603.53;;;12.55;74.90
83716;BME280;73698;51.138;6.950;2023-11-19T10:42:21;100610.66;;;12.67;74.70
83716;BME280;73698;51.138;6.950;2023-11-19T10:44:46;100604.81;;;12.73;73.35
83716;BME280;73698;51.138;6.950;2023-11-19T10:47:14;100611.53;;;12.67;73.68
83716;BME280;73698;51.138;6.950;2023-11-19T10:49:40;100606.13;;;12.67;74.00
83716;BME280;73698;51.138;6.950;2023-11-19T10:52:08;100605.03;;;12.70;74.57
83716;BME280;73698;51.138;6.950;2023-11-19T10:54:34;100603.81;;;12.74;73.58
83716;BME280;73698;51.138;6.950;2023-11-19T10:57:01;100595.09;;;12.70;74.45
83716;BME280;73698;51.138;6.950;2023-11-19T10:59:44;100597.94;;;12.80;73.53
83716;BME280;73698;51.138;6.950;2023-11-19T11:02:18;100597.31;;;12.77;73.00
83716;BME280;73698;51.138;6.950;2023-11-19T11:04:47;100590.81;;;12.79;72.25
83716;BME280;73698;51.138;6.950;2023-11-19T11:07:14;100596.34;;;12.78;72.09
83716;BME280;73698;51.138;6.950;2023-11-19T11:09:41;100594.63;;;12.77;72.55
83716;BME280;73698;51.138;6.950;2023-11-19T11:12:08;100596.72;;;12.73;72.45
83716;BME280;73698;51.138;6.950;2023-11-19T11:14:38;100590.78;;;12.68;71.70
83716;BME280;73698;51.138;6.950;2023-11-19T11:17:05;100584.44;;;12.69;72.37
83716;BME280;73698;51.138;6.950;2023-11-19T11:19:54;100589.56;;;12.72;72.61
83716;BME280;73698;51.138;6.950;2023-11-19T11:22:23;100590.56;;;12.71;70.93
83716;BME280;73698;51.138;6.950;2023-11-19T11:30:10;100595.94;;;12.60;73.73
83716;BME280;73698;51.138;6.950;2023-11-19T11:32:44;100593.97;;;12.51;72.50
83716;BME280;73698;51.138;6.950;2023-11-19T11:38:09;100579.97;;;12.57;73.54
83716;BME280;73698;51.138;6.950;2023-11-19T11:40:34;100588.47;;;12.63;72.81
83716;BME280;73698;51.138;6.950;2023-11-19T11:43:01;100576.34;;;12.69;72.19
83716;BME280;73698;51.138;6.950;2023-11-19T11:45:38;100567.03;;;12.73;71.75
83716;BME280;73698;51.138;6.950;2023-11-19T11:48:11;100568.75;;;12.85;72.08
83716;BME280;73698;51.138;6.950;2023-11-19T11:50:51;100562.50;;;12.96;73.04
83716;BME280;73698;51.138;6.950;2023-11-19T11:53:18;100548.25;;;13.16;72.27
83716;BME280;73698;51.138;6.950;2023-11-19T11:58:13;100557.22;;;13.28;71.40
83716;BME280;73698;51.138;6.950;2023-11-19T12:00:40;100546.78;;;13.35;69.53
83716;BME280;73698;51.138;6.950;2023-11-19T12:03:07;100558.44;;;13.35;69.07
83716;BME280;73698;51.138;6.950;2023-11-19T12:05:38;100563.09;;;13.33;69.53
83716;BME280;73698;51.138;6.950;2023-11-19T12:08:04;100557.34;;;13.27;70.19
83716;BME280;73698;51.138;6.950;2023-11-19T12:10:36;100554.75;;;13.25;69.22
83716;BME280;73698;51.138;6.950;2023-11-19T12:13:05;100549.56;;;13.22;69.40
83716;BME280;73698;51.138;6.950;2023-11-19T12:45:45;100531.44;;;13.02;70.51
83716;BME280;73698;51.138;6.950;2023-11-19T12:58:32;100543.31;;;12.43;77.60
83716;BME280;73698;51.138;6.950;2023-11-19T13:01:20;100531.66;;;12.31;79.42
83716;BME280;73698;51.138;6.950;2023-11-19T13:04:28;100536.66;;;12.25;79.03
83716;BME280;73698;51.138;6.950;2023-11-19T13:07:20;100535.34;;;12.30;79.02
83716;BME280;73698;51.138;6.950;2023-11-19T13:14:40;100547.25;;;12.39;78.06
83716;BME280;73698;51.138;6.950;2023-11-19T13:18:09;100538.81;;;12.55;76.01
83716;BME280;73698;51.138;6.950;2023-11-19T13:34:06;100531.56;;;12.66;74.52
83716;BME280;73698;51.138;6.950;2023-11-19T13:36:40;100545.44;;;12.62;74.99
83716;BME280;73698;51.138;6.950;2023-11-19T13:39:06;100535.25;;;12.65;74.18
83716;BME280;73698;51.138;6.950;2023-11-19T13:41:32;100519.78;;;12.67;73.59
83716;BME280;73698;51.138;6.950;2023-11-19T13:44:00;100532.19;;;12.70;74.25
83716;BME280;73698;51.138;6.950;2023-11-19T13:49:15;100524.09;;;12.70;74.14
83716;BME280;73698;51.138;6.950;2023-11-19T13:51:56;100529.63;;;12.68;74.29
83716;BME280;73698;51.138;6.950;2023-11-19T13:54:48;100518.94;;;12.67;74.23
83716;BME280;73698;51.138;6.950;2023-11-19T13:58:04;100517.47;;;12.63;74.38
83716;BME280;73698;51.138;6.950;2023-11-19T14:00:43;100512.06;;;12.52;72.94
83716;BME280;73698;51.138;6.950;2023-11-19T14:03:09;100518.22;;;12.54;74.48
83716;BME280;73698;51.138;6.950;2023-11-19T14:05:39;100516.13;;;12.46;75.03
83716;BME280;73698;51.138;6.950;2023-11-19T14:08:06;100502.88;;;12.43;73.91
83716;BME280;73698;51.138;6.950;2023-11-19T14:10:48;100509.34;;;12.40;74.30
83716;BME280;73698;51.138;6.950;2023-11-19T14:44:13;100495.47;;;11.52;81.12